Time;durP1;ratioP1;P1;durP2;ratioP2;P2;SDS_P1;SDS_P2;PMS_P1;PMS_P2;Temp;Humidity;BMP_temperature;BMP_pressure;BME280_temperature;BME280_humidity;BME280_pressure;Samples;Min_cycle;Max_cycle;Signal;HPM_P1;HPM_P2
2022/08/02 00:01:37;;;;;;;7.00;4.10;;;;;;;21.75;59.08;99964.53;107456;1273;138455;-67
2022/08/02 00:04:10;;;;;;;8.30;4.20;;;;;;;21.73;59.27;99966.62;107558;1273;109050;-67
2022/08/02 00:06:42;;;;;;;7.00;4.50;;;;;;;21.70;59.73;99969.79;107500;1273;138495;-67
2022/08/02 00:09:15;;;;;;;4.40;4.00;;;;;;;21.67;59.83;99969.34;106309;1273;97838;-67
2022/08/02 00:11:47;;;;;;;11.50;5.20;;;;;;;21.65;59.98;99969.52;105987;1273;97838;-66
2022/08/02 00:14:20;;;;;;;6.40;5.00;;;;;;;21.63;59.82;99972.02;105892;1273;139462;-67
2022/08/02 00:16:52;;;;;;;6.90;5.20;;;;;;;21.59;59.90;99973.03;105971;1273;108874;-67
2022/08/02 00:19:25;;;;;;;8.70;5.70;;;;;;;21.53;59.91;99972.15;107456;1273;138462;-67
2022/08/02 00:21:57;;;;;;;8.40;5.80;;;;;;;21.49;60.14;99974.05;107548;1273;96248;-67
2022/08/02 00:24:29;;;;;;;9.60;5.70;;;;;;;21.48;60.12;99979.84;107510;1273;138388;-68
2022/08/02 00:27:02;;;;;;;7.60;5.20;;;;;;;21.46;60.25;99974.85;107547;1273;111374;-68
2022/08/02 00:29:41;;;;;;;8.80;5.20;;;;;;;21.44;60.53;99977.19;107568;1273;110537;-68
2022/08/02 00:32:24;;;;;;;7.80;5.70;;;;;;;21.43;60.66;99974.27;107460;1273;139202;-68
2022/08/02 00:34:56;;;;;;;10.40;5.80;;;;;;;21.42;60.79;99965.99;106319;1273;97856;-67
2022/08/02 00:37:28;;;;;;;7.30;6.00;;;;;;;21.41;60.68;99965.71;105849;1274;138386;-66
2022/08/02 00:40:02;;;;;;;9.40;6.30;;;;;;;21.39;60.57;99968.38;107549;1273;111094;-67
2022/08/02 00:42:34;;;;;;;11.10;5.90;;;;;;;21.37;60.72;99969.90;107405;1273;138992;-66
2022/08/02 00:45:08;;;;;;;6.30;5.20;;;;;;;21.36;60.84;99973.88;107160;1273;109117;-66
2022/08/02 00:47:40;;;;;;;8.70;6.00;;;;;;;21.35;60.97;99977.18;107564;1273;96291;-66
2022/08/02 00:50:13;;;;;;;7.40;5.80;;;;;;;21.33;60.89;99980.13;107275;1273;258061;-67
2022/08/02 00:52:46;;;;;;;7.50;5.50;;;;;;;21.32;61.22;99976.86;106720;1272;112441;-65
2022/08/02 00:55:19;;;;;;;6.70;5.50;;;;;;;21.30;61.12;99980.17;107477;1272;138940;-67
2022/08/02 00:58:02;;;;;;;10.30;5.80;;;;;;;21.30;61.28;99976.90;107287;1273;107913;-65
2022/08/02 01:00:35;;;;;;;6.90;5.80;;;;;;;21.28;61.27;99980.06;107465;1273;139292;-67
2022/08/02 01:03:07;;;;;;;6.60;5.50;;;;;;;21.25;61.22;99979.55;107547;1273;96103;-67
2022/08/02 01:05:40;;;;;;;6.60;4.90;;;;;;;21.23;61.13;99984.70;106527;1274;112435;-65
2022/08/02 01:08:33;;;;;;;7.00;5.60;;;;;;;21.19;61.25;99987.14;105995;1273;138345;-65
2022/08/02 01:11:07;;;;;;;7.00;5.20;;;;;;;21.17;61.23;99989.42;106068;1273;109479;-66
2022/08/02 01:13:40;;;;;;;5.60;4.90;;;;;;;21.14;61.51;99989.06;105892;1273;138350;-65
2022/08/02 01:16:16;;;;;;;8.30;5.40;;;;;;;21.10;61.52;99989.41;105994;1273;97826;-66
2022/08/02 01:18:54;;;;;;;9.10;5.90;;;;;;;21.06;61.50;99990.74;107452;1273;138840;-66
2022/08/02 01:21:38;;;;;;;7.70;6.20;;;;;;;21.03;61.56;99989.43;107592;1273;107681;-66
2022/08/02 01:24:30;;;;;;;8.20;5.60;;;;;;;21.00;61.67;99989.13;107587;1273;107620;-66
2022/08/02 01:27:26;;;;;;;7.40;5.40;;;;;;;20.98;61.74;99986.09;107513;1273;96265;-67
2022/08/02 01:30:01;;;;;;;7.00;5.60;;;;;;;20.97;61.62;99986.16;106426;1274;97847;-66
2022/08/02 01:32:41;;;;;;;8.40;5.80;;;;;;;20.95;61.41;99985.98;107477;1274;139873;-66
2022/08/02 01:35:17;;;;;;;6.70;5.40;;;;;;;20.94;61.32;99989.93;107582;1273;109105;-66
2022/08/02 01:37:54;;;;;;;10.10;5.80;;;;;;;20.93;61.35;99988.65;107482;1273;139267;-66
2022/08/02 01:40:30;;;;;;;9.20;5.50;;;;;;;20.92;61.47;99984.71;107503;1274;96060;-66
2022/08/02 01:43:03;;;;;;;7.30;5.80;;;;;;;20.90;61.57;99987.65;107476;1273;138920;-66
2022/08/02 01:45:39;;;;;;;7.40;5.40;;;;;;;20.89;61.72;99985.30;106570;1273;113286;-66
2022/08/02 01:48:13;;;;;;;7.50;5.50;;;;;;;20.89;61.77;99988.11;107600;1272;109335;-67
2022/08/02 01:50:46;;;;;;;7.40;5.60;;;;;;;20.88;62.04;99988.02;107184;1273;138076;-66
2022/08/02 01:53:21;;;;;;;8.50;5.60;;;;;;;20.87;61.97;99990.38;106023;1273;98025;-66
2022/08/02 01:55:56;;;;;;;6.90;5.50;;;;;;;20.86;62.03;99991.73;105897;1273;139734;-66
2022/08/02 01:58:35;;;;;;;9.30;5.70;;;;;;;20.83;62.00;99991.54;107626;1273;112608;-66
2022/08/02 02:01:06;;;;;;;;;;;;;;;20.80;61.97;99992.17;107523;1273;139194;-67
2022/08/02 02:03:42;;;;;;;9.00;6.20;;;;;;;20.75;61.89;99996.95;107589;1273;108755;-67
2022/08/02 02:06:15;;;;;;;8.00;5.80;;;;;;;20.70;61.81;99999.84;107546;1273;96170;-66
2022/08/02 02:08:49;;;;;;;8.10;5.80;;;;;;;20.66;61.99;100003.89;107458;1274;138726;-66
2022/08/02 02:11:22;;;;;;;7.60;5.70;;;;;;;20.63;62.34;100007.43;106048;1273;111013;-66
2022/08/02 02:14:16;;;;;;;8.30;5.90;;;;;;;20.61;62.28;100006.40;107444;1273;139320;-66
2022/08/02 02:16:50;;;;;;;7.80;5.80;;;;;;;20.57;62.48;100008.09;107525;1273;108869;-67
2022/08/02 02:19:24;;;;;;;7.40;6.00;;;;;;;20.55;62.44;100005.27;107328;1275;138572;-66
2022/08/02 02:21:57;;;;;;;7.10;6.30;;;;;;;20.53;62.43;99999.76;107545;1273;96287;-67
2022/08/02 02:24:29;;;;;;;8.40;5.90;;;;;;;20.51;62.38;99999.56;107473;1273;138443;-66
2022/08/02 02:27:07;;;;;;;6.80;6.00;;;;;;;20.48;62.41;100003.61;107560;1273;110381;-66
2022/08/02 02:29:43;;;;;;;9.10;5.60;;;;;;;20.46;62.83;100013.83;106306;1273;108831;-66
2022/08/02 02:32:18;;;;;;;8.50;6.10;;;;;;;20.44;62.72;100012.40;105968;1273;139304;-68
2022/08/02 02:34:51;;;;;;;7.40;5.90;;;;;;;20.42;62.62;100011.51;106043;1273;97910;-66
2022/08/02 02:37:26;;;;;;;8.00;5.60;;;;;;;20.41;62.78;100011.97;107453;1273;139705;-66
2022/08/02 02:40:00;;;;;;;9.80;6.00;;;;;;;20.39;63.09;100011.56;107571;1272;108742;-66
2022/08/02 02:42:34;;;;;;;8.40;6.10;;;;;;;20.37;63.02;100007.64;106385;1273;138963;-66
2022/08/02 02:45:09;;;;;;;10.00;7.90;;;;;;;20.35;63.08;100006.73;107589;1271;96263;-66
2022/08/02 02:47:43;;;;;;;10.40;6.50;;;;;;;20.34;63.29;100008.61;106087;1273;97756;-65
2022/08/02 02:50:45;;;;;;;7.60;5.90;;;;;;;20.36;63.17;100009.67;102218;1312;636969;-67
2022/08/02 02:53:21;;;;;;;8.40;5.50;;;;;;;20.34;63.63;100009.66;106829;1281;92980;-67
2022/08/02 02:55:54;;;;;;;11.30;6.40;;;;;;;20.33;63.59;100008.14;106798;1281;138947;-66
2022/08/02 02:58:34;;;;;;;10.30;6.40;;;;;;;20.32;63.61;100010.31;106816;1283;107950;-67
2022/08/02 03:04:17;;;;;;;9.70;6.30;;;;;;;20.30;63.59;100006.11;106783;1281;192921;-67
2022/08/02 03:06:50;;;;;;;7.10;6.00;;;;;;;20.28;63.76;100007.11;106915;1281;140096;-67
2022/08/02 03:09:22;;;;;;;8.80;6.10;;;;;;;20.25;63.80;100001.70;107033;1281;92752;-67
2022/08/02 03:11:55;;;;;;;6.20;5.60;;;;;;;20.23;63.91;100000.09;106995;1281;108342;-67
2022/08/02 03:14:27;;;;;;;8.00;6.00;;;;;;;20.21;64.13;100002.02;107062;1279;137882;-67
2022/08/02 03:17:00;;;;;;;9.90;6.20;;;;;;;20.18;63.93;100001.38;107020;1281;108782;-67
2022/08/02 03:19:32;;;;;;;11.30;6.60;;;;;;;20.14;63.99;100000.61;105790;1281;138609;-68
2022/08/02 03:22:05;;;;;;;8.50;6.70;;;;;;;20.12;64.34;99999.20;105669;1281;95170;-67
2022/08/02 03:24:37;;;;;;;10.10;6.60;;;;;;;20.10;64.35;100004.40;107292;1277;138085;-67
2022/08/02 03:27:09;;;;;;;11.40;7.60;;;;;;;20.10;64.40;100005.13;107398;1277;109048;-67
2022/08/02 03:29:42;;;;;;;15.40;8.50;;;;;;;20.10;64.42;100007.41;107328;1277;107888;-68
2022/08/02 03:32:14;;;;;;;15.00;8.10;;;;;;;20.10;64.60;100006.55;107285;1277;139296;-68
2022/08/02 03:34:47;;;;;;;12.40;8.20;;;;;;;20.11;64.70;100010.15;107684;1271;93406;-68
2022/08/02 03:37:20;;;;;;;10.90;8.20;;;;;;;20.13;64.84;100011.42;107489;1272;138726;-67
2022/08/02 03:39:53;;;;;;;11.30;8.60;;;;;;;20.14;64.73;100009.40;107623;1271;108798;-68
2022/08/02 03:42:27;;;;;;;14.30;8.70;;;;;;;20.15;64.75;100010.55;107624;1271;109823;-68
2022/08/02 03:45:01;;;;;;;12.00;9.60;;;;;;;20.16;64.70;100011.75;107630;1271;93509;-67
2022/08/02 03:47:41;;;;;;;17.40;9.60;;;;;;;20.15;64.90;100015.54;107571;1273;93402;-67
2022/08/02 03:50:14;;;;;;;15.30;9.40;;;;;;;20.15;64.94;100017.65;107586;1271;138016;-68
2022/08/02 03:52:48;;;;;;;12.60;10.00;;;;;;;20.16;65.00;100020.55;107705;1271;108948;-67
2022/08/02 03:55:20;;;;;;;12.80;9.60;;;;;;;20.19;65.04;100027.95;107612;1270;138273;-68
2022/08/02 03:57:53;;;;;;;11.40;9.80;;;;;;;20.19;65.29;100033.19;107747;1270;93633;-67
2022/08/02 04:00:25;;;;;;;13.80;10.00;;;;;;;20.22;65.40;100037.05;107749;1270;93125;-67
2022/08/02 04:02:58;;;;;;;15.60;9.80;;;;;;;20.27;65.23;100035.97;107717;1270;109825;-67
2022/08/02 04:05:30;;;;;;;12.60;8.80;;;;;;;20.33;65.49;100038.20;107735;1270;108932;-67
2022/08/02 04:08:03;;;;;;;14.60;8.90;;;;;;;20.38;65.43;100042.34;107603;1270;138075;-67
2022/08/02 04:13:45;;;;;;;9.60;8.60;;;;;;;20.52;65.28;100046.27;107638;1270;138428;-68
2022/08/02 04:16:23;;;;;;;15.00;8.80;;;;;;;20.57;65.55;100047.11;107698;1271;108792;-67
2022/08/02 04:18:56;;;;;;;13.70;8.00;;;;;;;20.62;65.28;100045.30;107580;1270;138693;-67
2022/08/02 04:21:32;;;;;;;10.80;8.40;;;;;;;20.69;65.06;100051.13;107694;1270;109041;-67
2022/08/02 04:24:26;;;;;;;9.90;7.50;;;;;;;20.76;65.28;100050.77;107716;1271;93422;-67
2022/08/02 04:27:00;;;;;;;13.00;7.60;;;;;;;20.83;65.08;100050.23;107738;1270;93233;-69
2022/08/02 04:29:53;;;;;;;8.20;7.10;;;;;;;20.90;64.91;100050.75;107751;1271;109965;-68
2022/08/02 04:32:27;;;;;;;14.00;7.30;;;;;;;20.96;64.73;100053.75;107635;1270;137960;-67
2022/08/02 04:34:59;;;;;;;10.50;7.30;;;;;;;21.04;64.43;100054.21;107669;1270;109544;-67
2022/08/02 04:37:53;;;;;;;12.80;7.20;;;;;;;21.13;64.02;100055.64;107583;1270;138014;-67
2022/08/02 04:40:49;;;;;;;10.00;6.50;;;;;;;21.23;63.42;100059.34;107703;1271;93888;-67
2022/08/02 04:43:22;;;;;;;10.00;6.50;;;;;;;21.30;63.14;100061.39;107610;1270;138030;-67
2022/08/02 04:45:56;;;;;;;12.00;6.70;;;;;;;21.38;62.75;100066.80;107718;1270;108997;-67
2022/08/02 04:48:28;;;;;;;11.80;6.40;;;;;;;21.46;62.38;100068.11;107491;1271;138274;-67
2022/08/02 04:51:01;;;;;;;8.30;6.00;;;;;;;21.54;62.04;100069.73;107656;1273;93268;-67
2022/08/02 04:53:33;;;;;;;10.50;6.30;;;;;;;21.61;61.49;100075.17;107746;1270;93856;-67
2022/08/02 04:56:06;;;;;;;7.90;6.00;;;;;;;21.67;61.30;100078.05;107698;1268;139518;-67
2022/08/02 04:58:39;;;;;;;9.70;6.20;;;;;;;21.74;61.07;100081.73;107788;1270;109774;-68
2022/08/02 05:01:12;;;;;;;8.90;6.60;;;;;;;21.81;60.72;100085.96;107641;1270;138501;-67
2022/08/02 05:03:44;;;;;;;9.30;5.90;;;;;;;21.89;60.48;100090.55;107843;1268;93338;-67
2022/08/02 05:06:19;;;;;;;10.10;6.50;;;;;;;22.05;60.44;100090.02;107817;1268;93446;-67
2022/08/02 05:08:51;;;;;;;8.60;4.80;;;;;;;22.26;60.27;100091.96;107797;1270;108559;-67
2022/08/02 05:11:25;;;;;;;6.70;5.80;;;;;;;22.49;59.70;100093.42;107866;1268;109081;-67
2022/08/02 05:14:07;;;;;;;11.80;5.40;;;;;;;22.74;59.14;100097.02;107711;1269;137404;-67
2022/08/02 05:16:40;;;;;;;11.30;5.80;;;;;;;23.02;59.02;100101.11;107829;1268;93551;-68
2022/08/02 05:19:12;;;;;;;8.60;5.10;;;;;;;23.42;58.47;100104.73;107786;1268;137542;-67
2022/08/02 05:21:44;;;;;;;9.50;5.50;;;;;;;24.27;58.12;100105.13;107880;1268;110219;-67
2022/08/02 05:24:17;;;;;;;7.40;5.10;;;;;;;25.67;57.09;100103.39;107921;1268;108892;-67
2022/08/02 05:26:49;;;;;;;9.40;5.20;;;;;;;27.09;55.46;100105.56;107631;1270;137116;-68
2022/08/02 05:29:22;;;;;;;7.10;4.40;;;;;;;28.43;53.28;100104.99;107792;1270;93135;-67
2022/08/02 05:31:54;;;;;;;9.10;5.30;;;;;;;29.69;50.96;100106.65;107661;1269;137664;-68
2022/08/02 05:34:26;;;;;;;10.70;5.10;;;;;;;30.95;49.14;100101.32;107778;1270;108693;-67
2022/08/02 05:36:58;;;;;;;9.80;4.30;;;;;;;32.05;46.97;100103.00;107690;1268;137801;-68
2022/08/02 05:39:31;;;;;;;12.70;4.60;;;;;;;32.97;45.21;100104.05;107773;1268;108952;-67
2022/08/02 05:42:03;;;;;;;9.10;4.30;;;;;;;33.53;43.11;100106.85;107902;1268;93428;-65
2022/08/02 05:44:36;;;;;;;7.80;4.30;;;;;;;33.91;41.00;100100.62;107796;1267;137509;-68
2022/08/02 05:47:09;;;;;;;9.10;4.00;;;;;;;34.32;40.13;100105.30;107834;1268;108729;-65
2022/08/02 05:49:41;;;;;;;6.40;3.60;;;;;;;34.17;38.66;100110.05;106883;1268;137406;-67
2022/08/02 05:52:17;;;;;;;12.80;3.70;;;;;;;33.87;37.63;100111.77;106284;1268;108998;-67
2022/08/02 05:54:54;;;;;;;5.90;4.10;;;;;;;33.43;37.55;100113.02;106876;1268;137714;-68
2022/08/02 05:57:45;;;;;;;7.60;3.50;;;;;;;33.45;37.64;100116.84;106371;1267;95112;-67
2022/08/02 06:00:19;;;;;;;9.90;3.80;;;;;;;33.98;37.24;100115.50;106318;1268;110057;-67
2022/08/02 06:03:03;;;;;;;9.20;3.40;;;;;;;34.69;37.02;100114.31;107837;1268;109654;-67
2022/08/02 06:05:41;;;;;;;7.60;3.80;;;;;;;35.47;36.48;100120.91;107908;1267;107716;-67
2022/08/02 06:08:15;;;;;;;6.60;3.40;;;;;;;36.19;34.66;100116.89;107292;1268;137344;-67
2022/08/02 06:10:49;;;;;;;5.40;2.50;;;;;;;36.72;33.49;100118.16;106347;1268;95192;-67
2022/08/02 06:13:22;;;;;;;7.30;3.40;;;;;;;37.08;33.12;100119.20;106190;1268;137891;-67
2022/08/02 06:15:58;;;;;;;9.00;3.10;;;;;;;37.37;32.46;100118.65;106254;1268;108825;-66
2022/08/02 06:18:31;;;;;;;6.20;3.20;;;;;;;37.83;31.85;100120.97;107655;1268;137839;-67
2022/08/02 06:21:07;;;;;;;9.50;2.80;;;;;;;38.31;30.87;100114.04;107788;1268;94171;-67
2022/08/02 06:24:00;;;;;;;8.50;3.10;;;;;;;38.78;30.13;100112.36;107815;1268;93358;-67
2022/08/02 06:26:34;;;;;;;5.10;2.60;;;;;;;39.19;29.33;100116.29;107044;1268;138116;-67
2022/08/02 06:29:06;;;;;;;2.90;2.10;;;;;;;39.53;27.93;100118.00;107814;1268;108827;-67
2022/08/02 06:31:40;;;;;;;5.00;2.50;;;;;;;39.91;27.69;100117.79;107710;1266;138263;-68
2022/08/02 06:34:16;;;;;;;7.00;2.20;;;;;;;40.33;27.08;100121.08;107847;1268;93412;-67
2022/08/02 06:37:01;;;;;;;5.30;2.00;;;;;;;40.27;26.62;100122.89;107704;1268;137996;-66
2022/08/02 06:39:40;;;;;;;5.70;2.30;;;;;;;39.93;26.39;100124.33;107845;1268;107468;-66
2022/08/02 06:42:15;;;;;;;9.10;2.60;;;;;;;39.34;26.58;100129.99;107862;1268;108005;-66
2022/08/02 06:44:58;;;;;;;4.50;2.10;;;;;;;38.70;26.55;100132.59;107850;1268;107803;-67
2022/08/02 06:47:31;;;;;;;5.00;1.80;;;;;;;38.10;26.64;100138.41;107894;1268;93481;-67
2022/08/02 06:50:03;;;;;;;4.00;2.10;;;;;;;37.55;26.20;100139.27;107720;1268;137792;-67
2022/08/02 06:52:36;;;;;;;9.70;2.20;;;;;;;36.94;26.18;100136.52;107739;1268;108511;-67
2022/08/02 06:55:10;;;;;;;5.50;1.80;;;;;;;36.40;26.38;100136.10;107693;1268;137664;-67
2022/08/02 06:57:42;;;;;;;3.70;2.00;;;;;;;36.17;27.02;100136.98;107795;1268;108945;-67
2022/08/02 07:00:15;;;;;;;4.00;1.80;;;;;;;36.37;27.44;100139.86;107792;1267;94291;-67
2022/08/02 07:02:49;;;;;;;7.60;2.10;;;;;;;36.86;26.95;100140.95;107733;1267;137585;-67
2022/08/02 07:05:21;;;;;;;5.20;2.10;;;;;;;37.39;27.41;100146.87;107793;1268;109776;-67
2022/08/02 07:07:53;;;;;;;5.10;2.20;;;;;;;38.00;27.25;100150.30;107675;1268;137848;-67
2022/08/02 07:10:26;;;;;;;2.40;1.90;;;;;;;38.53;26.51;100143.89;107695;1268;107425;-67
2022/08/02 07:12:58;;;;;;;4.40;2.40;;;;;;;38.98;26.19;100145.09;107704;1268;138143;-65
2022/08/02 07:15:31;;;;;;;4.10;2.10;;;;;;;39.39;26.03;100148.98;107805;1268;94675;-67
2022/08/02 07:18:03;;;;;;;3.60;1.90;;;;;;;39.59;25.70;100151.40;107750;1268;111109;-67
2022/08/02 07:20:36;;;;;;;2.70;1.80;;;;;;;39.71;25.52;100155.73;107658;1268;138618;-68
2022/08/02 07:23:08;;;;;;;5.40;2.20;;;;;;;39.88;25.49;100160.44;107783;1268;108866;-67
2022/08/02 07:25:42;;;;;;;4.30;2.00;;;;;;;40.43;25.58;100158.80;107685;1268;138207;-65
2022/08/02 07:28:34;;;;;;;3.10;1.80;;;;;;;41.02;24.79;100156.78;107746;1268;94882;-69
2022/08/02 07:31:06;;;;;;;5.80;2.10;;;;;;;41.44;24.06;100155.58;107768;1268;138468;-69
2022/08/02 07:33:39;;;;;;;3.70;1.90;;;;;;;41.80;23.95;100157.67;107881;1268;108940;-69
2022/08/02 07:36:16;;;;;;;3.70;1.70;;;;;;;42.13;23.59;100154.87;107869;1266;107752;-69
2022/08/02 07:38:53;;;;;;;5.60;1.60;;;;;;;42.35;23.11;100155.80;107893;1267;94777;-70
2022/08/02 07:41:26;;;;;;;2.50;1.70;;;;;;;42.54;22.68;100153.90;107838;1267;94932;-70
2022/08/02 07:43:58;;;;;;;6.30;1.50;;;;;;;42.72;22.27;100149.55;107772;1267;137652;-70
2022/08/02 07:46:32;;;;;;;6.20;1.70;;;;;;;42.86;22.17;100146.89;107841;1267;107488;-69
2022/08/02 07:49:04;;;;;;;5.40;1.30;;;;;;;43.04;21.59;100150.39;107740;1266;137609;-69
2022/08/02 07:51:36;;;;;;;4.00;1.40;;;;;;;43.23;21.49;100148.59;107858;1267;94620;-69
2022/08/02 07:54:09;;;;;;;4.90;1.90;;;;;;;43.26;21.13;100149.75;107886;1268;94787;-68
2022/08/02 07:56:48;;;;;;;4.40;1.60;;;;;;;42.51;21.04;100148.09;107713;1267;138080;-69
2022/08/02 07:59:30;;;;;;;3.10;1.60;;;;;;;42.23;21.83;100152.84;106846;1267;109052;-69
2022/08/02 08:02:02;;;;;;;3.40;1.50;;;;;;;42.44;21.74;100154.17;107438;1268;138153;-69
2022/08/02 08:04:35;;;;;;;4.50;1.60;;;;;;;42.60;21.86;100149.83;107850;1267;94878;-70
2022/08/02 08:07:09;;;;;;;8.10;1.40;;;;;;;42.38;21.07;100157.58;107733;1267;138035;-70
2022/08/02 08:09:43;;;;;;;5.70;1.50;;;;;;;41.72;21.15;100155.98;107826;1267;110250;-71
2022/08/02 08:12:16;;;;;;;10.80;2.00;;;;;;;41.66;21.76;100158.28;107814;1267;107407;-66
2022/08/02 08:14:48;;;;;;;6.80;1.80;;;;;;;41.71;21.86;100162.02;107648;1268;137397;-65
2022/08/02 08:17:21;;;;;;;4.60;1.60;;;;;;;41.97;21.66;100162.42;107341;1268;96939;-65
2022/08/02 08:19:53;;;;;;;5.80;1.80;;;;;;;42.29;20.80;100162.87;106471;1268;137345;-65
2022/08/02 08:22:25;;;;;;;4.80;1.60;;;;;;;42.54;20.52;100162.35;107850;1268;111418;-74
2022/08/02 08:24:58;;;;;;;4.10;1.70;;;;;;;42.64;20.50;100157.71;107738;1266;137740;-65
2022/08/02 08:27:30;;;;;;;5.40;1.80;;;;;;;42.73;20.11;100156.20;107865;1267;108910;-65
2022/08/02 08:30:03;;;;;;;5.30;1.80;;;;;;;42.86;19.85;100159.63;107846;1267;94740;-65
2022/08/02 08:32:35;;;;;;;4.20;1.60;;;;;;;42.98;19.52;100160.67;107751;1267;137480;-68
2022/08/02 08:35:09;;;;;;;4.90;1.30;;;;;;;43.04;20.13;100164.05;107887;1267;111498;-66
2022/08/02 08:37:41;;;;;;;3.00;1.50;;;;;;;43.09;20.33;100161.95;107744;1267;138244;-66
2022/08/02 08:40:15;;;;;;;4.20;1.60;;;;;;;43.15;20.20;100158.80;107827;1268;108867;-66
2022/08/02 08:42:50;;;;;;;4.70;1.50;;;;;;;43.21;20.35;100154.92;107756;1268;139163;-66
2022/08/02 08:45:23;;;;;;;2.90;1.60;;;;;;;43.49;19.82;100158.33;107870;1267;94737;-66
2022/08/02 08:48:06;;;;;;;4.30;1.20;;;;;;;43.50;20.22;100158.61;107839;1267;111661;-65
2022/08/02 08:50:46;;;;;;;2.20;1.30;;;;;;;43.39;20.45;100159.27;107759;1267;138183;-66
2022/08/02 08:53:20;;;;;;;2.90;1.30;;;;;;;43.51;20.48;100161.63;107792;1267;109565;-67
2022/08/02 08:56:08;;;;;;;5.40;1.60;;;;;;;43.57;20.12;100164.94;107732;1267;138220;-66
2022/08/02 08:58:47;;;;;;;5.80;1.70;;;;;;;43.41;20.16;100162.23;107887;1268;94856;-66
2022/08/02 09:01:20;;;;;;;15.60;2.60;;;;;;;43.21;19.92;100164.58;107725;1268;137363;-66
2022/08/02 09:03:53;;;;;;;4.70;1.50;;;;;;;43.01;20.34;100164.69;107816;1267;109044;-66
2022/08/02 09:06:25;;;;;;;2.60;1.70;;;;;;;42.88;20.30;100162.38;107854;1267;108925;-66
2022/08/02 09:08:58;;;;;;;6.60;1.80;;;;;;;42.86;20.30;100162.69;107820;1267;94622;-66
2022/08/02 09:11:30;;;;;;;3.80;1.80;;;;;;;42.74;20.45;100166.23;107838;1267;94924;-66
2022/08/02 09:14:04;;;;;;;2.90;1.30;;;;;;;42.61;21.04;100171.18;107152;1267;137671;-65
2022/08/02 09:16:39;;;;;;;2.60;1.60;;;;;;;42.63;20.79;100170.27;107382;1268;108690;-66
2022/08/02 09:19:22;;;;;;;2.70;1.50;;;;;;;42.52;20.31;100170.55;107729;1267;138053;-66
2022/08/02 09:22:03;;;;;;;3.30;1.50;;;;;;;42.40;20.49;100172.50;107770;1267;94504;-66
2022/08/02 09:24:45;;;;;;;4.60;1.70;;;;;;;42.19;20.63;100176.20;107746;1268;138710;-66
2022/08/02 09:27:20;;;;;;;5.60;1.90;;;;;;;42.01;21.25;100177.08;107869;1268;111416;-66
2022/08/02 09:29:54;;;;;;;3.10;1.50;;;;;;;41.95;21.13;100176.34;107848;1267;108950;-67
2022/08/02 09:32:48;;;;;;;4.40;2.00;;;;;;;41.76;21.05;100181.63;107734;1268;137638;-66
2022/08/02 09:35:35;;;;;;;2.60;1.50;;;;;;;41.71;21.09;100180.95;107835;1266;96267;-66
2022/08/02 09:38:28;;;;;;;61.70;12.30;;;;;;;41.79;20.81;100181.33;106190;1267;137305;-66
2022/08/02 09:41:01;;;;;;;15.70;3.40;;;;;;;41.70;21.09;100183.63;106253;1268;109608;-66
2022/08/02 09:43:42;;;;;;;8.50;2.90;;;;;;;41.58;21.17;100182.35;107135;1268;137768;-66
2022/08/02 09:46:37;;;;;;;11.20;2.80;;;;;;;41.46;21.66;100180.70;107829;1267;108982;-66
2022/08/02 09:49:11;;;;;;;11.40;3.30;;;;;;;41.53;21.58;100185.14;107786;1266;138025;-66
2022/08/02 09:51:52;;;;;;;5.00;2.40;;;;;;;41.46;21.34;100184.29;107856;1267;95034;-66
2022/08/02 09:54:26;;;;;;;6.50;2.20;;;;;;;41.37;21.06;100179.23;107880;1267;110110;-66
2022/08/02 09:57:00;;;;;;;9.50;2.30;;;;;;;41.34;20.94;100175.86;107828;1267;107302;-66
2022/08/02 09:59:32;;;;;;;10.30;2.70;;;;;;;41.39;21.39;100176.69;107871;1267;108546;-66
2022/08/02 10:02:11;;;;;;;12.70;2.80;;;;;;;41.34;21.42;100177.66;107777;1267;138914;-66
2022/08/02 10:04:48;;;;;;;4.80;2.40;;;;;;;40.93;21.35;100180.09;107886;1267;94738;-66
2022/08/02 10:07:24;;;;;;;4.30;2.10;;;;;;;40.54;21.59;100183.73;107793;1267;137738;-66
2022/08/02 10:09:57;;;;;;;5.10;1.80;;;;;;;40.35;21.81;100179.10;107778;1267;109047;-66
2022/08/02 10:12:30;;;;;;;5.20;2.10;;;;;;;39.78;21.51;100176.50;107750;1267;138363;-66
2022/08/02 10:15:02;;;;;;;6.40;2.30;;;;;;;39.16;22.00;100177.23;107867;1268;94804;-66
2022/08/02 10:17:35;;;;;;;6.20;2.60;;;;;;;38.59;22.36;100177.84;107826;1267;94939;-66
2022/08/02 10:20:09;;;;;;;5.30;2.40;;;;;;;37.97;22.41;100178.80;107714;1267;137254;-66
2022/08/02 10:22:43;;;;;;;8.40;2.70;;;;;;;37.29;23.14;100183.37;107870;1267;108265;-66
2022/08/02 10:25:16;;;;;;;6.60;2.90;;;;;;;36.57;23.75;100180.46;107721;1267;137599;-66
2022/08/02 10:27:50;;;;;;;7.90;3.10;;;;;;;36.11;24.42;100186.63;107859;1267;94734;-66
2022/08/02 10:30:39;;;;;;;5.60;2.90;;;;;;;35.77;25.16;100189.48;107799;1267;137406;-66
2022/08/02 10:33:16;;;;;;;8.30;2.90;;;;;;;35.83;25.94;100190.96;106823;1267;110987;-66
2022/08/02 10:35:53;;;;;;;8.20;2.90;;;;;;;36.02;24.79;100188.43;106390;1268;109201;-65
2022/08/02 10:38:38;;;;;;;6.80;3.40;;;;;;;36.25;25.15;100183.92;106340;1268;138943;-66
2022/08/02 10:41:11;;;;;;;8.90;4.40;;;;;;;36.30;24.56;100187.58;107866;1268;94733;-66
2022/08/02 10:43:49;;;;;;;9.00;3.20;;;;;;;35.99;24.85;100185.85;107741;1268;138694;-67
2022/08/02 10:46:31;;;;;;;7.20;3.00;;;;;;;35.55;25.10;100185.34;107902;1268;112633;-66
2022/08/02 10:49:14;;;;;;;5.70;3.20;;;;;;;35.13;25.68;100182.23;107783;1268;138245;-66
2022/08/02 10:52:09;;;;;;;9.60;3.20;;;;;;;34.57;25.92;100183.63;107425;1268;108207;-66
2022/08/02 10:54:44;;;;;;;6.50;3.20;;;;;;;34.17;26.65;100185.47;106178;1268;138784;-66
2022/08/02 10:57:21;;;;;;;5.90;2.80;;;;;;;33.89;27.04;100183.33;107490;1268;95588;-65
2022/08/02 10:59:55;;;;;;;5.80;2.70;;;;;;;33.72;27.65;100182.19;107920;1267;112201;-66
2022/08/02 11:02:47;;;;;;;6.90;2.70;;;;;;;33.61;27.87;100184.19;107750;1267;137487;-66
2022/08/02 11:05:31;;;;;;;8.40;4.50;;;;;;;33.46;27.96;100181.90;106235;1268;108887;-65
2022/08/02 11:08:23;;;;;;;5.70;3.20;;;;;;;33.63;28.55;100182.66;107744;1268;137510;-66
2022/08/02 11:11:00;;;;;;;6.10;3.30;;;;;;;33.54;28.24;100185.02;107885;1268;94842;-66
2022/08/02 11:13:53;;;;;;;13.90;4.80;;;;;;;33.46;28.95;100180.44;107725;1267;137345;-65
2022/08/02 11:16:45;;;;;;;10.00;3.60;;;;;;;33.58;28.86;100179.94;107843;1267;108765;-66
2022/08/02 11:19:17;;;;;;;8.90;3.30;;;;;;;33.60;29.06;100177.41;107761;1267;137705;-66
2022/08/02 11:22:01;;;;;;;3.90;2.10;;;;;;;33.62;28.52;100174.30;107879;1267;94732;-66
2022/08/02 11:24:36;;;;;;;5.20;2.70;;;;;;;33.61;28.41;100174.45;107725;1267;138035;-65
2022/08/02 11:27:16;;;;;;;7.90;2.50;;;;;;;33.67;29.10;100175.30;107843;1267;109722;-66
2022/08/02 11:29:52;;;;;;;5.00;2.40;;;;;;;33.78;29.01;100176.54;107773;1267;108927;-66
2022/08/02 11:32:26;;;;;;;7.60;2.70;;;;;;;33.84;28.66;100176.22;107729;1267;137399;-66
2022/08/02 11:35:03;;;;;;;6.30;2.60;;;;;;;33.74;28.62;100184.46;107805;1267;94762;-66
2022/08/02 11:37:37;;;;;;;3.70;2.50;;;;;;;33.44;28.59;100186.25;107631;1268;137736;-66
2022/08/02 11:40:13;;;;;;;6.50;2.20;;;;;;;33.12;28.89;100183.29;107327;1267;110524;-65
2022/08/02 11:42:52;;;;;;;5.10;2.30;;;;;;;32.80;28.92;100182.42;107771;1266;137856;-66
2022/08/02 11:45:27;;;;;;;2.90;1.90;;;;;;;32.45;29.39;100186.75;107840;1267;108956;-66
2022/08/02 11:48:01;;;;;;;4.70;2.10;;;;;;;32.12;29.47;100190.09;107801;1268;95215;-66
2022/08/02 11:50:33;;;;;;;3.90;2.10;;;;;;;31.80;29.92;100189.88;107709;1267;137403;-66
2022/08/02 11:53:14;;;;;;;4.10;2.10;;;;;;;31.53;30.18;100189.20;107841;1267;109603;-66
2022/08/02 11:55:46;;;;;;;4.80;2.70;;;;;;;31.29;30.62;100189.06;107758;1267;137586;-66
2022/08/02 11:58:19;;;;;;;9.30;2.40;;;;;;;31.09;31.08;100188.96;107811;1267;108511;-65